Date,TemperatureHighF,TemperatureAvgF,TemperatureLowF,DewpointHighF,DewpointAvgF,DewpointLowF,HumidityHigh,HumidityAvg,HumidityLow,PressureMaxIn,PressureMinIn,WindSpeedMaxMPH,WindSpeedAvgMPH,GustSpeedMaxMPH,PrecipitationSumIn
2013-9-1,68.8,61.3,56.9,46.8,38.5,24.9,67,44,26,29.85,29.73,17,6,19,0.00
2013-9-2,68.1,60.7,55.6,47.9,45.6,41.5,70,59,39,29.84,29.73,22,4,22,0.00
2013-9-3,70.9,61.7,55.6,46.2,43.7,39.3,69,52,34,29.87,29.75,23,5,28,0.00
2013-9-4,71.6,62.3,56.2,46.0,43.0,39.4,61,50,33,29.91,29.80,19,4,22,0.00
2013-9-5,68.9,60.2,54.1,41.5,36.0,27.8,58,42,25,29.89,29.78,31,6,32,0.00
2013-9-6,73.0,61.7,52.5,39.4,35.6,31.6,56,39,25,29.96,29.78,19,4,21,0.00
2013-9-7,71.1,62.4,55.1,39.1,31.9,27.2,51,33,21,29.88,29.78,23,4,24,0.00
2013-9-8,71.5,62.1,52.5,39.7,31.1,23.6,58,32,20,29.90,29.77,24,5,27,0.00
2013-9-9,78.3,65.0,55.7,32.2,28.9,21.9,37,26,15,29.84,29.64,15,3,17,0.00
2013-9-10,77.4,64.1,55.1,37.0,28.5,20.0,42,27,13,29.79,29.66,14,3,18,0.00
2013-9-11,73.9,61.9,56.0,41.1,35.4,26.5,52,38,19,29.89,29.71,19,4,21,0.00
2013-9-12,70.8,59.9,51.9,49.8,39.7,33.2,91,50,29,29.91,29.75,17,4,22,0.10
2013-9-13,73.9,57.6,50.4,52.9,47.4,38.6,94,72,29,29.93,29.74,14,3,18,0.01
2013-9-14,76.3,62.5,54.7,47.0,43.0,37.1,68,51,25,29.77,29.63,20,3,20,0.00
2013-9-15,71.6,61.8,55.1,42.3,34.2,26.5,54,36,23,29.76,29.59,23,5,29,0.00
2013-9-16,70.9,59.7,51.7,40.8,32.4,27.4,58,37,22,29.81,29.66,22,6,30,0.00
2013-9-17,58.9,51.3,42.6,36.9,28.3,18.3,65,42,22,29.83,29.58,32,10,36,0.00
2013-9-18,60.7,47.7,36.3,33.7,28.3,17.7,82,50,24,30.00,29.83,16,4,20,0.00
2013-9-19,69.3,55.2,43.1,25.9,23.8,17.9,47,31,18,29.95,29.75,16,4,17,0.00
2013-9-20,66.6,55.7,45.1,32.2,23.1,15.6,54,29,18,29.76,29.62,29,5,33,0.00
2013-9-21,50.8,40.4,31.8,39.3,31.1,17.7,94,72,34,29.83,29.62,31,8,33,0.31
2013-9-22,50.7,40.5,31.9,37.4,31.5,20.0,92,73,33,30.03,29.83,26,7,31,0.01
2013-9-23,64.2,50.8,40.3,39.4,29.6,-2.7,91,52,11,30.05,29.90,17,4,22,0.01
2013-9-24,57.2,50.6,39.3,35.4,21.3,-9.8,71,36,9,29.89,29.68,32,12,39,0.00
2013-9-25,41.1,36.2,28.2,29.1,23.3,16.3,87,60,38,29.88,29.68,26,8,34,0.00
2013-9-26,44.2,32.9,26.0,27.4,22.8,17.7,87,68,41,30.12,29.84,16,3,22,0.00
2013-9-27,55.0,39.6,28.5,25.2,19.2,-99.9,78,50,16,30.20,30.06,13,-14,15,0.00
2013-9-28,60.2,49.1,40.5,30.1,24.1,18.2,53,38,27,30.10,29.96,23,9,28,0.00
2013-9-29,55.7,48.7,44.2,29.9,25.6,18.0,53,41,29,29.97,29.85,34,14,41,0.00
2013-9-30,55.3,48.9,44.6,35.8,30.2,18.5,63,49,31,29.98,29.85,26,9,33,0.00